Estación Meteorológica Peña el Pijo (Robertgarden) [ 12/11/19 23:03:38 CET ]

Fecha Hora Presion(HPa) Temp (°C) Humedad % Rocio (°C) Viento ( m/s) Direccion Lluvia 1Hora(mm) Lluvia 24H(mm) LLuvia Total(mm)
2019-Sep-25 01:01:55 1011.500 11.3 74 6.8         490.25
2019-Sep-25 02:01:50 1010.900 10.5 78 6.8         490.25
2019-Sep-25 03:01:50 1010.500 10.2 80 6.9         490.25
2019-Sep-25 04:05:30 1010.300 9.9 82 6.9         490.25
2019-Sep-25 05:02:02 1010.200 9.8 83 7.0         490.25
2019-Sep-25 06:01:49 1009.900 9.4 84 6.8         490.25
2019-Sep-25 07:01:44 1009.900 9.5 85 7.1         490.25
2019-Sep-25 08:01:51 1009.700 9.3 86 7.1         490.25
2019-Sep-25 09:01:50 1010.100 10.2 86 7.9         490.25
2019-Sep-25 10:01:40 1010.300 16.5 81 13.2         490.25
2019-Sep-25 11:01:48 1010.400 21.4 60 13.4         490.25
2019-Sep-25 12:01:45 1010.600 24.5 48 12.8         490.25
2019-Sep-25 13:01:51 1010.400 26.9 37 10.9         490.25
2019-Sep-25 14:01:42 1009.700 29.4 32 10.9 1.3 N     490.25
2019-Sep-25 15:01:53 1009.400 29.8 27 8.6         490.25
2019-Sep-25 16:01:49 1009.200 29.2 28 8.7 1.3 N     490.25
2019-Sep-25 17:01:51 1009.100 28.9 29 9.0         490.25
2019-Sep-25 18:01:49 1009.100 28.2 30 9.0         490.25
2019-Sep-25 19:01:42 1009.300 25.8 33 8.2         490.25
2019-Sep-25 20:01:43 1010.100 20.9 44 8.1         490.25
2019-Sep-25 21:01:43 1010.800 16.3 59 8.3         490.25
2019-Sep-25 22:01:39 1011.400 14.3 68 8.4         490.25
2019-Sep-25 23:01:38 1011.800 13.5 73 8.7         490.25

Temperatura Máxima:29°    Temperatura Mínima:
Presión Máxima:1011.800 Hpa    Presión Mínima:1009.100 Hpa


Volver